createdAt,value
2018-09-13T00:00:10.956Z,1030.98587495
2018-09-13T00:00:23.521Z,1030.98587495
2018-09-13T00:00:35.993Z,1030.98587495
2018-09-13T00:00:48.433Z,1030.98587495
2018-09-13T00:01:00.853Z,1030.98587495
2018-09-13T00:01:13.261Z,1030.95201107
2018-09-13T00:01:25.671Z,1030.95201107
2018-09-13T00:01:38.072Z,1030.95201107
2018-09-13T00:01:50.507Z,1030.95201107
2018-09-13T00:02:02.973Z,1031.01973883
2018-09-13T00:02:15.396Z,1031.01973883
2018-09-13T00:02:27.796Z,1031.01973883
2018-09-13T00:02:40.224Z,1031.01973883
2018-09-13T00:02:52.644Z,1031.01973883
2018-09-13T00:03:05.040Z,1031.05360271
2018-09-13T00:03:17.737Z,1031.05360271
2018-09-13T00:03:30.149Z,1031.05360271
2018-09-13T00:03:42.564Z,1031.05360271
2018-09-13T00:03:54.966Z,1031.05360271
2018-09-13T00:04:07.377Z,1030.95201107
2018-09-13T00:04:19.801Z,1030.95201107
2018-09-13T00:04:32.200Z,1030.95201107
2018-09-13T00:04:44.668Z,1030.95201107
2018-09-13T00:04:57.065Z,1030.95201107
2018-09-13T00:05:09.476Z,1031.0874666
2018-09-13T00:05:21.880Z,1031.0874666
2018-09-13T00:05:34.347Z,1031.0874666
2018-09-13T00:05:46.935Z,1031.0874666
2018-09-13T00:06:00.126Z,1031.0874666
2018-09-13T00:06:12.634Z,1031.05360271
2018-09-13T00:06:25.073Z,1031.05360271
2018-09-13T00:06:37.493Z,1031.05360271
2018-09-13T00:06:49.924Z,1031.05360271
2018-09-13T00:07:02.337Z,1031.05360271
2018-09-13T00:07:14.750Z,1031.05360271
2018-09-13T00:07:27.194Z,1031.05360271
2018-09-13T00:07:39.810Z,1031.05360271
2018-09-13T00:07:52.342Z,1031.05360271
2018-09-13T00:08:04.758Z,1031.15519436
2018-09-13T00:08:17.176Z,1031.15519436
2018-09-13T00:08:29.600Z,1031.15519436
2018-09-13T00:08:42.027Z,1031.15519436
2018-09-13T00:08:54.443Z,1031.15519436
2018-09-13T00:09:06.842Z,1031.18905824
2018-09-13T00:09:19.319Z,1031.18905824
2018-09-13T00:09:31.775Z,1031.18905824
2018-09-13T00:09:44.193Z,1031.18905824
2018-09-13T00:09:57.008Z,1031.18905824
2018-09-13T00:10:09.426Z,1031.12133048
2018-09-13T00:10:21.953Z,1031.12133048
2018-09-13T00:10:34.364Z,1031.12133048
2018-09-13T00:10:46.801Z,1031.12133048
2018-09-13T00:10:59.208Z,1031.12133048
2018-09-13T00:11:11.624Z,1031.12133048
2018-09-13T00:11:24.305Z,1031.12133048
2018-09-13T00:11:36.753Z,1031.12133048
2018-09-13T00:11:49.310Z,1031.12133048
2018-09-13T00:12:01.726Z,1031.12133048
2018-09-13T00:12:14.239Z,1031.22292212
2018-09-13T00:12:26.656Z,1031.22292212
2018-09-13T00:12:39.197Z,1031.22292212
2018-09-13T00:12:51.593Z,1031.22292212
2018-09-13T00:13:04.014Z,1031.05360271
2018-09-13T00:13:16.425Z,1031.05360271
2018-09-13T00:13:28.844Z,1031.05360271
2018-09-13T00:13:41.249Z,1031.05360271
2018-09-13T00:13:53.664Z,1031.05360271
2018-09-13T00:14:06.166Z,1031.15519436
2018-09-13T00:14:18.594Z,1031.15519436
2018-09-13T00:14:30.988Z,1031.15519436
2018-09-13T00:14:43.403Z,1031.15519436
2018-09-13T00:14:56.216Z,1031.15519436
2018-09-13T00:15:08.671Z,1031.0874666
2018-09-13T00:15:21.083Z,1031.0874666
2018-09-13T00:15:33.606Z,1031.0874666
2018-09-13T00:15:46.016Z,1031.0874666
2018-09-13T00:15:58.419Z,1031.0874666
2018-09-13T00:16:10.822Z,1031.12133048
2018-09-13T00:16:23.228Z,1031.12133048
2018-09-13T00:16:35.627Z,1031.12133048
2018-09-13T00:16:48.027Z,1031.12133048
2018-09-13T00:17:00.458Z,1031.12133048
2018-09-13T00:17:12.862Z,1031.0874666
2018-09-13T00:17:25.272Z,1031.0874666
2018-09-13T00:17:37.681Z,1031.0874666
2018-09-13T00:17:50.096Z,1031.0874666
2018-09-13T00:18:02.507Z,1031.05360271
2018-09-13T00:18:14.905Z,1031.05360271
2018-09-13T00:18:27.323Z,1031.05360271
2018-09-13T00:18:39.770Z,1031.05360271
2018-09-13T00:18:52.227Z,1031.05360271
2018-09-13T00:19:04.630Z,1031.05360271
2018-09-13T00:19:17.053Z,1031.05360271
2018-09-13T00:19:29.448Z,1031.05360271
2018-09-13T00:19:41.845Z,1031.05360271
2018-09-13T00:19:54.297Z,1031.05360271
2018-09-13T00:20:06.768Z,1031.01973883
2018-09-13T00:20:19.185Z,1031.01973883
2018-09-13T00:20:31.630Z,1031.01973883
2018-09-13T00:20:44.074Z,1031.01973883
2018-09-13T00:20:56.511Z,1031.01973883
2018-09-13T00:21:09.209Z,1031.05360271
2018-09-13T00:21:21.606Z,1031.05360271
2018-09-13T00:21:34.007Z,1031.05360271
2018-09-13T00:21:46.460Z,1031.05360271
2018-09-13T00:21:58.875Z,1031.05360271
2018-09-13T00:22:11.276Z,1031.01973883
2018-09-13T00:22:23.681Z,1031.01973883
2018-09-13T00:22:36.091Z,1031.01973883
2018-09-13T00:22:48.492Z,1031.01973883
2018-09-13T00:23:00.893Z,1031.01973883
2018-09-13T00:23:13.422Z,1031.05360271
2018-09-13T00:23:25.831Z,1031.05360271
2018-09-13T00:23:38.247Z,1031.05360271
2018-09-13T00:23:50.689Z,1031.05360271
2018-09-13T00:24:03.394Z,1030.95201107
2018-09-13T00:24:15.810Z,1030.95201107
2018-09-13T00:24:28.229Z,1030.95201107
2018-09-13T00:24:40.656Z,1030.95201107
2018-09-13T00:24:53.086Z,1030.95201107
2018-09-13T00:25:05.487Z,1030.88428331
2018-09-13T00:25:17.913Z,1030.88428331
2018-09-13T00:25:30.321Z,1030.88428331
2018-09-13T00:25:42.737Z,1030.88428331
2018-09-13T00:25:55.142Z,1030.88428331
2018-09-13T00:26:07.783Z,1031.05360271
2018-09-13T00:26:20.201Z,1031.05360271
2018-09-13T00:26:32.597Z,1031.05360271
2018-09-13T00:26:45.016Z,1031.05360271
2018-09-13T00:26:57.437Z,1031.05360271
2018-09-13T00:27:09.833Z,1031.05360271
2018-09-13T00:27:22.232Z,1031.05360271
2018-09-13T00:27:34.618Z,1031.05360271
2018-09-13T00:27:47.063Z,1031.05360271
2018-09-13T00:27:59.455Z,1031.05360271
2018-09-13T00:28:12.075Z,1031.05360271
2018-09-13T00:28:24.513Z,1031.05360271
2018-09-13T00:28:36.927Z,1031.05360271
2018-09-13T00:28:49.327Z,1031.05360271
2018-09-13T00:29:01.737Z,1031.05360271
2018-09-13T00:29:14.129Z,1031.05360271
2018-09-13T00:29:26.545Z,1031.05360271
2018-09-13T00:29:38.954Z,1031.05360271
2018-09-13T00:29:51.363Z,1031.05360271
2018-09-13T00:30:03.770Z,1031.05360271
2018-09-13T00:30:16.185Z,1031.05360271
2018-09-13T00:30:28.598Z,1031.05360271
2018-09-13T00:30:41.015Z,1031.05360271
2018-09-13T00:30:53.460Z,1031.05360271
2018-09-13T00:31:06.296Z,1031.01973883
2018-09-13T00:31:18.722Z,1031.01973883
2018-09-13T00:31:31.156Z,1031.01973883
2018-09-13T00:31:43.565Z,1031.01973883
2018-09-13T00:31:55.973Z,1031.01973883
2018-09-13T00:32:08.364Z,1030.91814719
2018-09-13T00:32:20.911Z,1030.91814719
2018-09-13T00:32:33.301Z,1030.91814719
2018-09-13T00:32:45.709Z,1030.91814719
2018-09-13T00:32:58.142Z,1030.91814719
2018-09-13T00:33:10.555Z,1031.01973883
2018-09-13T00:33:22.964Z,1031.01973883
2018-09-13T00:33:35.478Z,1031.01973883
2018-09-13T00:33:47.874Z,1031.01973883
2018-09-13T00:34:00.287Z,1031.01973883
2018-09-13T00:34:12.679Z,1031.01973883
2018-09-13T00:34:25.068Z,1031.01973883
2018-09-13T00:34:37.489Z,1031.01973883
2018-09-13T00:34:49.905Z,1031.01973883
2018-09-13T00:35:02.305Z,1031.01973883
2018-09-13T00:35:14.721Z,1031.05360271
2018-09-13T00:35:27.114Z,1031.05360271
2018-09-13T00:35:39.511Z,1031.05360271
2018-09-13T00:35:51.949Z,1031.05360271
2018-09-13T00:36:04.346Z,1031.01973883
2018-09-13T00:36:16.791Z,1031.01973883
2018-09-13T00:36:29.269Z,1031.01973883
2018-09-13T00:36:41.732Z,1031.01973883
2018-09-13T00:36:54.125Z,1031.01973883
2018-09-13T00:37:06.545Z,1031.05360271
2018-09-13T00:37:18.929Z,1031.05360271
2018-09-13T00:37:31.330Z,1031.05360271
2018-09-13T00:37:43.782Z,1031.05360271
2018-09-13T00:37:56.184Z,1031.05360271
2018-09-13T00:38:08.650Z,1031.12133048
2018-09-13T00:38:21.119Z,1031.12133048
2018-09-13T00:38:33.516Z,1031.12133048
2018-09-13T00:38:46.004Z,1031.12133048
2018-09-13T00:38:58.395Z,1031.12133048
2018-09-13T00:39:10.799Z,1031.12133048
2018-09-13T00:39:23.207Z,1031.12133048
2018-09-13T00:39:35.659Z,1031.12133048
2018-09-13T00:39:48.070Z,1031.12133048
2018-09-13T00:40:00.469Z,1031.12133048
2018-09-13T00:40:12.975Z,1031.12133048
2018-09-13T00:40:25.393Z,1031.12133048
2018-09-13T00:40:37.915Z,1031.12133048
2018-09-13T00:40:50.317Z,1031.12133048
2018-09-13T00:41:02.708Z,1031.15519436
2018-09-13T00:41:15.099Z,1031.15519436
2018-09-13T00:41:27.500Z,1031.15519436
2018-09-13T00:41:39.893Z,1031.15519436
2018-09-13T00:41:52.291Z,1031.15519436
2018-09-13T00:42:04.685Z,1031.18905824
2018-09-13T00:42:17.086Z,1031.18905824
2018-09-13T00:42:29.510Z,1031.18905824
2018-09-13T00:42:41.908Z,1031.18905824
2018-09-13T00:42:54.324Z,1031.18905824
2018-09-13T00:43:06.716Z,1031.32451377
2018-09-13T00:43:19.112Z,1031.32451377
2018-09-13T00:43:31.520Z,1031.32451377
2018-09-13T00:43:43.926Z,1031.32451377
2018-09-13T00:43:56.333Z,1031.32451377
2018-09-13T00:44:08.719Z,1031.22292212
2018-09-13T00:44:21.127Z,1031.22292212
2018-09-13T00:44:33.540Z,1031.22292212
2018-09-13T00:44:45.947Z,1031.22292212
2018-09-13T00:44:58.356Z,1031.22292212
2018-09-13T00:45:10.801Z,1031.29064989
2018-09-13T00:45:23.201Z,1031.29064989
2018-09-13T00:45:35.599Z,1031.29064989
2018-09-13T00:45:47.980Z,1031.29064989
2018-09-13T00:46:00.393Z,1031.29064989
2018-09-13T00:46:12.796Z,1031.256786
2018-09-13T00:46:25.197Z,1031.256786
2018-09-13T00:46:37.594Z,1031.256786
2018-09-13T00:46:49.992Z,1031.256786
2018-09-13T00:47:02.395Z,1031.256786
2018-09-13T00:47:14.838Z,1031.29064989
2018-09-13T00:47:27.251Z,1031.29064989
2018-09-13T00:47:39.682Z,1031.29064989
2018-09-13T00:47:52.067Z,1031.29064989
2018-09-13T00:48:04.479Z,1031.256786
2018-09-13T00:48:16.886Z,1031.256786
2018-09-13T00:48:29.280Z,1031.256786
2018-09-13T00:48:41.700Z,1031.256786
2018-09-13T00:48:54.309Z,1031.256786
2018-09-13T00:49:06.729Z,1031.256786
2018-09-13T00:49:19.334Z,1031.256786
2018-09-13T00:49:31.735Z,1031.256786
2018-09-13T00:49:44.118Z,1031.256786
2018-09-13T00:49:56.521Z,1031.256786
2018-09-13T00:50:08.938Z,1031.32451377
2018-09-13T00:50:21.325Z,1031.32451377
2018-09-13T00:50:33.743Z,1031.32451377
2018-09-13T00:50:46.154Z,1031.32451377
2018-09-13T00:50:58.548Z,1031.32451377
2018-09-13T00:51:10.965Z,1031.22292212
2018-09-13T00:51:23.364Z,1031.22292212
2018-09-13T00:51:35.750Z,1031.22292212
2018-09-13T00:51:48.138Z,1031.22292212
2018-09-13T00:52:00.522Z,1031.22292212
2018-09-13T00:52:12.904Z,1031.256786
2018-09-13T00:52:25.296Z,1031.256786
2018-09-13T00:52:37.705Z,1031.256786
2018-09-13T00:52:50.104Z,1031.256786
2018-09-13T00:53:02.501Z,1031.15519436
2018-09-13T00:53:14.971Z,1031.15519436
2018-09-13T00:53:27.525Z,1031.15519436
2018-09-13T00:53:39.924Z,1031.15519436
2018-09-13T00:53:52.340Z,1031.15519436
2018-09-13T00:54:04.732Z,1031.256786
2018-09-13T00:54:17.128Z,1031.256786
2018-09-13T00:54:29.562Z,1031.256786
2018-09-13T00:54:41.961Z,1031.256786
2018-09-13T00:54:54.376Z,1031.256786
2018-09-13T00:55:06.791Z,1031.256786
2018-09-13T00:55:19.183Z,1031.256786
2018-09-13T00:55:31.572Z,1031.256786
2018-09-13T00:55:43.964Z,1031.256786
2018-09-13T00:55:56.376Z,1031.256786
2018-09-13T00:56:08.776Z,1031.15519436
2018-09-13T00:56:21.177Z,1031.15519436
2018-09-13T00:56:33.568Z,1031.15519436
2018-09-13T00:56:46.008Z,1031.15519436
2018-09-13T00:56:58.412Z,1031.15519436
2018-09-13T00:57:11.000Z,1031.18905824
2018-09-13T00:57:23.395Z,1031.18905824
2018-09-13T00:57:35.783Z,1031.18905824
2018-09-13T00:57:48.205Z,1031.18905824
2018-09-13T00:58:00.616Z,1031.18905824
2018-09-13T00:58:13.388Z,1031.22292212
2018-09-13T00:58:25.795Z,1031.22292212
2018-09-13T00:58:38.537Z,1031.22292212
2018-09-13T00:58:50.950Z,1031.22292212
2018-09-13T00:59:04.638Z,1031.22292212
2018-09-13T00:59:17.322Z,1031.22292212
2018-09-13T00:59:29.763Z,1031.22292212
2018-09-13T00:59:42.158Z,1031.22292212
2018-09-13T00:59:54.567Z,1031.22292212
2018-09-13T01:00:06.971Z,1031.15519436
2018-09-13T01:00:19.405Z,1031.15519436
2018-09-13T01:00:31.971Z,1031.15519436
2018-09-13T01:00:44.421Z,1031.15519436
2018-09-13T01:00:56.832Z,1031.15519436
2018-09-13T01:01:09.247Z,1031.15519436
2018-09-13T01:01:21.656Z,1031.15519436
2018-09-13T01:01:34.082Z,1031.15519436
2018-09-13T01:01:46.490Z,1031.15519436
2018-09-13T01:01:58.906Z,1031.15519436
2018-09-13T01:02:11.320Z,1031.15519436
2018-09-13T01:02:23.737Z,1031.15519436
2018-09-13T01:02:36.195Z,1031.15519436
2018-09-13T01:02:48.582Z,1031.15519436
2018-09-13T01:03:00.992Z,1031.15519436
2018-09-13T01:03:13.392Z,1031.18905824
2018-09-13T01:03:25.990Z,1031.18905824
2018-09-13T01:03:38.397Z,1031.18905824
2018-09-13T01:03:50.812Z,1031.18905824
2018-09-13T01:04:03.227Z,1031.22292212
2018-09-13T01:04:15.632Z,1031.22292212
2018-09-13T01:04:28.049Z,1031.22292212
2018-09-13T01:04:40.502Z,1031.22292212
2018-09-13T01:04:53.012Z,1031.22292212
2018-09-13T01:05:05.479Z,1031.22292212
2018-09-13T01:05:17.884Z,1031.22292212
2018-09-13T01:05:30.311Z,1031.22292212
2018-09-13T01:05:42.716Z,1031.22292212
2018-09-13T01:05:55.163Z,1031.22292212
2018-09-13T01:06:07.607Z,1031.256786
2018-09-13T01:06:20.024Z,1031.256786
2018-09-13T01:06:32.578Z,1031.256786
2018-09-13T01:06:44.985Z,1031.256786
2018-09-13T01:06:57.392Z,1031.256786
2018-09-13T01:07:09.852Z,1031.22292212
2018-09-13T01:07:22.258Z,1031.22292212
2018-09-13T01:07:34.653Z,1031.22292212
2018-09-13T01:07:47.041Z,1031.22292212
2018-09-13T01:07:59.454Z,1031.22292212
2018-09-13T01:08:11.884Z,1031.22292212
2018-09-13T01:08:24.289Z,1031.22292212
2018-09-13T01:08:36.695Z,1031.22292212
2018-09-13T01:08:49.101Z,1031.22292212
2018-09-13T01:09:01.506Z,1031.22292212
2018-09-13T01:09:13.920Z,1031.15519436
2018-09-13T01:09:26.357Z,1031.15519436
2018-09-13T01:09:38.755Z,1031.15519436
2018-09-13T01:09:51.147Z,1031.15519436
2018-09-13T01:10:03.576Z,1031.15519436
2018-09-13T01:10:16.038Z,1031.15519436
2018-09-13T01:10:28.604Z,1031.15519436
2018-09-13T01:10:41.009Z,1031.15519436
2018-09-13T01:10:53.420Z,1031.15519436
2018-09-13T01:11:05.814Z,1031.12133048
2018-09-13T01:11:18.210Z,1031.12133048
2018-09-13T01:11:30.956Z,1031.12133048
2018-09-13T01:11:43.549Z,1031.12133048
2018-09-13T01:11:55.963Z,1031.12133048
2018-09-13T01:12:08.559Z,1031.256786
2018-09-13T01:12:21.003Z,1031.256786
2018-09-13T01:12:33.445Z,1031.256786
2018-09-13T01:12:45.857Z,1031.256786
2018-09-13T01:12:58.261Z,1031.256786
2018-09-13T01:13:10.709Z,1031.18905824
2018-09-13T01:13:23.147Z,1031.18905824
2018-09-13T01:13:35.542Z,1031.18905824
2018-09-13T01:13:47.932Z,1031.18905824
2018-09-13T01:14:00.323Z,1031.18905824
2018-09-13T01:14:12.732Z,1031.32451377
2018-09-13T01:14:25.143Z,1031.32451377
2018-09-13T01:14:37.550Z,1031.32451377
2018-09-13T01:14:49.955Z,1031.32451377
2018-09-13T01:15:02.348Z,1031.32451377
2018-09-13T01:15:14.749Z,1031.256786
2018-09-13T01:15:27.192Z,1031.256786
2018-09-13T01:15:39.605Z,1031.256786
2018-09-13T01:15:52.063Z,1031.256786
2018-09-13T01:16:04.465Z,1031.32451377
2018-09-13T01:16:16.854Z,1031.32451377
2018-09-13T01:16:29.270Z,1031.32451377
2018-09-13T01:16:41.712Z,1031.32451377
2018-09-13T01:16:54.097Z,1031.32451377
2018-09-13T01:17:06.514Z,1031.29064989
2018-09-13T01:17:18.903Z,1031.29064989
2018-09-13T01:17:31.286Z,1031.29064989
2018-09-13T01:17:43.682Z,1031.29064989
2018-09-13T01:17:56.077Z,1031.29064989
2018-09-13T01:18:08.608Z,1031.32451377
2018-09-13T01:18:21.041Z,1031.32451377
2018-09-13T01:18:33.467Z,1031.32451377
2018-09-13T01:18:45.899Z,1031.32451377
2018-09-13T01:18:58.309Z,1031.32451377
2018-09-13T01:19:10.700Z,1031.29064989
2018-09-13T01:19:23.093Z,1031.29064989
2018-09-13T01:19:35.496Z,1031.29064989
2018-09-13T01:19:47.897Z,1031.29064989
2018-09-13T01:20:00.295Z,1031.29064989
2018-09-13T01:20:12.682Z,1031.29064989
2018-09-13T01:20:25.081Z,1031.29064989
2018-09-13T01:20:37.463Z,1031.29064989
2018-09-13T01:20:49.842Z,1031.29064989
2018-09-13T01:21:02.380Z,1031.29064989
2018-09-13T01:21:14.784Z,1031.29064989
2018-09-13T01:21:27.195Z,1031.29064989
2018-09-13T01:21:39.653Z,1031.29064989
2018-09-13T01:21:52.073Z,1031.29064989
2018-09-13T01:22:04.479Z,1031.256786
2018-09-13T01:22:16.895Z,1031.256786
2018-09-13T01:22:29.561Z,1031.256786
2018-09-13T01:22:41.952Z,1031.256786
2018-09-13T01:22:54.370Z,1031.256786
2018-09-13T01:23:06.760Z,1031.35837765
2018-09-13T01:23:19.298Z,1031.35837765
2018-09-13T01:23:31.688Z,1031.35837765
2018-09-13T01:23:44.093Z,1031.35837765
2018-09-13T01:23:56.518Z,1031.35837765
2018-09-13T01:24:09.106Z,1031.256786
2018-09-13T01:24:21.490Z,1031.256786
2018-09-13T01:24:33.892Z,1031.256786
2018-09-13T01:24:46.441Z,1031.256786
2018-09-13T01:24:58.855Z,1031.256786
2018-09-13T01:25:11.250Z,1031.256786
2018-09-13T01:25:23.662Z,1031.256786
2018-09-13T01:25:36.062Z,1031.256786
2018-09-13T01:25:48.450Z,1031.256786
2018-09-13T01:26:00.831Z,1031.256786
2018-09-13T01:26:13.218Z,1031.18905824
2018-09-13T01:26:25.643Z,1031.18905824
2018-09-13T01:26:38.039Z,1031.18905824
2018-09-13T01:26:50.432Z,1031.18905824
2018-09-13T01:27:03.082Z,1031.256786
2018-09-13T01:27:15.497Z,1031.256786
2018-09-13T01:27:27.929Z,1031.256786
2018-09-13T01:27:40.368Z,1031.256786
2018-09-13T01:27:52.768Z,1031.256786
2018-09-13T01:28:05.164Z,1031.32451377
2018-09-13T01:28:17.570Z,1031.32451377
2018-09-13T01:28:29.980Z,1031.32451377
2018-09-13T01:28:42.397Z,1031.32451377
2018-09-13T01:28:54.812Z,1031.32451377
2018-09-13T01:29:07.228Z,1031.35837765
2018-09-13T01:29:19.626Z,1031.35837765
2018-09-13T01:29:32.029Z,1031.35837765
2018-09-13T01:29:44.416Z,1031.35837765
2018-09-13T01:29:56.843Z,1031.35837765
2018-09-13T01:30:09.263Z,1031.32451377
2018-09-13T01:30:21.672Z,1031.32451377
2018-09-13T01:30:34.057Z,1031.32451377
2018-09-13T01:30:46.583Z,1031.32451377
2018-09-13T01:30:59.059Z,1031.32451377
2018-09-13T01:31:11.481Z,1031.35837765
2018-09-13T01:31:23.894Z,1031.35837765
2018-09-13T01:31:36.290Z,1031.35837765
2018-09-13T01:31:48.690Z,1031.35837765
2018-09-13T01:32:01.115Z,1031.35837765
2018-09-13T01:32:13.501Z,1031.42610541
2018-09-13T01:32:25.914Z,1031.42610541
2018-09-13T01:32:38.341Z,1031.42610541
2018-09-13T01:32:50.757Z,1031.42610541
2018-09-13T01:33:03.155Z,1031.42610541
2018-09-13T01:33:15.600Z,1031.42610541
2018-09-13T01:33:28.003Z,1031.42610541
2018-09-13T01:33:40.504Z,1031.42610541
2018-09-13T01:33:52.915Z,1031.42610541
2018-09-13T01:34:05.351Z,1031.32451377
2018-09-13T01:34:17.748Z,1031.32451377
2018-09-13T01:34:30.185Z,1031.32451377
2018-09-13T01:34:42.592Z,1031.32451377
2018-09-13T01:34:55.001Z,1031.32451377
2018-09-13T01:35:07.405Z,1031.32451377
2018-09-13T01:35:19.804Z,1031.32451377
2018-09-13T01:35:32.339Z,1031.32451377
2018-09-13T01:35:44.725Z,1031.32451377
2018-09-13T01:35:57.113Z,1031.32451377
2018-09-13T01:36:09.511Z,1031.256786
2018-09-13T01:36:21.900Z,1031.256786
2018-09-13T01:36:34.296Z,1031.256786
2018-09-13T01:36:46.707Z,1031.256786
2018-09-13T01:36:59.099Z,1031.256786
2018-09-13T01:37:11.486Z,1031.256786
2018-09-13T01:37:23.891Z,1031.256786
2018-09-13T01:37:36.285Z,1031.256786
2018-09-13T01:37:48.719Z,1031.256786
2018-09-13T01:38:01.143Z,1031.256786
2018-09-13T01:38:13.560Z,1031.18905824
2018-09-13T01:38:25.981Z,1031.18905824
2018-09-13T01:38:38.385Z,1031.18905824
2018-09-13T01:38:50.776Z,1031.18905824
2018-09-13T01:39:03.209Z,1031.0874666
2018-09-13T01:39:15.659Z,1031.0874666
2018-09-13T01:39:28.382Z,1031.0874666
2018-09-13T01:39:40.787Z,1031.0874666
2018-09-13T01:39:53.203Z,1031.0874666
2018-09-13T01:40:05.610Z,1031.18905824
2018-09-13T01:40:18.370Z,1031.18905824
2018-09-13T01:40:30.787Z,1031.18905824
2018-09-13T01:40:43.183Z,1031.18905824
2018-09-13T01:40:55.595Z,1031.18905824
2018-09-13T01:41:07.997Z,1031.18905824
2018-09-13T01:41:20.406Z,1031.18905824
2018-09-13T01:41:32.800Z,1031.18905824
2018-09-13T01:41:45.196Z,1031.18905824
2018-09-13T01:41:57.597Z,1031.18905824
2018-09-13T01:42:10.005Z,1031.18905824
2018-09-13T01:42:22.408Z,1031.18905824
2018-09-13T01:42:34.818Z,1031.18905824
2018-09-13T01:42:47.225Z,1031.18905824
2018-09-13T01:42:59.635Z,1031.18905824
2018-09-13T01:43:12.043Z,1031.22292212
2018-09-13T01:43:24.427Z,1031.22292212
2018-09-13T01:43:36.892Z,1031.22292212
2018-09-13T01:43:49.281Z,1031.22292212
2018-09-13T01:44:01.673Z,1031.22292212
2018-09-13T01:44:14.073Z,1031.32451377
2018-09-13T01:44:26.572Z,1031.32451377
2018-09-13T01:44:38.971Z,1031.32451377
2018-09-13T01:44:51.363Z,1031.32451377
2018-09-13T01:45:03.771Z,1031.29064989
2018-09-13T01:45:16.175Z,1031.29064989
2018-09-13T01:45:28.558Z,1031.29064989
2018-09-13T01:45:40.947Z,1031.29064989
2018-09-13T01:45:53.340Z,1031.29064989
2018-09-13T01:46:05.735Z,1031.32451377
2018-09-13T01:46:18.124Z,1031.32451377
2018-09-13T01:46:30.536Z,1031.32451377
2018-09-13T01:46:42.932Z,1031.32451377
2018-09-13T01:46:55.351Z,1031.32451377
2018-09-13T01:47:07.742Z,1031.256786
2018-09-13T01:47:20.151Z,1031.256786
2018-09-13T01:47:32.563Z,1031.256786
2018-09-13T01:47:44.982Z,1031.256786
2018-09-13T01:47:57.381Z,1031.256786
2018-09-13T01:48:09.768Z,1031.256786
2018-09-13T01:48:22.157Z,1031.256786
2018-09-13T01:48:34.570Z,1031.256786
2018-09-13T01:48:47.104Z,1031.256786
2018-09-13T01:48:59.513Z,1031.256786
2018-09-13T01:49:11.939Z,1031.29064989
2018-09-13T01:49:24.441Z,1031.29064989
2018-09-13T01:49:36.827Z,1031.29064989
2018-09-13T01:49:49.229Z,1031.29064989
2018-09-13T01:50:01.663Z,1031.29064989
2018-09-13T01:50:14.063Z,1031.35837765
2018-09-13T01:50:26.471Z,1031.35837765
2018-09-13T01:50:38.918Z,1031.35837765
2018-09-13T01:50:51.318Z,1031.35837765
2018-09-13T01:51:03.706Z,1031.29064989
2018-09-13T01:51:16.090Z,1031.29064989
2018-09-13T01:51:28.489Z,1031.29064989
2018-09-13T01:51:40.877Z,1031.29064989
2018-09-13T01:51:53.282Z,1031.29064989
2018-09-13T01:52:05.690Z,1031.32451377
2018-09-13T01:52:18.083Z,1031.32451377
2018-09-13T01:52:30.495Z,1031.32451377
2018-09-13T01:52:42.884Z,1031.32451377
2018-09-13T01:52:55.281Z,1031.32451377
2018-09-13T01:53:07.682Z,1031.35837765
2018-09-13T01:53:20.380Z,1031.35837765
2018-09-13T01:53:32.952Z,1031.35837765
2018-09-13T01:53:45.357Z,1031.35837765
2018-09-13T01:53:57.747Z,1031.35837765
2018-09-13T01:54:10.138Z,1031.39224153
2018-09-13T01:54:22.526Z,1031.39224153
2018-09-13T01:54:34.933Z,1031.39224153
2018-09-13T01:54:47.330Z,1031.39224153
2018-09-13T01:54:59.728Z,1031.39224153
2018-09-13T01:55:12.136Z,1031.39224153
2018-09-13T01:55:24.536Z,1031.39224153
2018-09-13T01:55:36.954Z,1031.39224153
2018-09-13T01:55:49.339Z,1031.39224153
2018-09-13T01:56:01.721Z,1031.39224153
2018-09-13T01:56:14.121Z,1031.39224153
2018-09-13T01:56:26.525Z,1031.39224153
2018-09-13T01:56:38.948Z,1031.39224153
2018-09-13T01:56:51.373Z,1031.39224153
2018-09-13T01:57:03.787Z,1031.35837765
2018-09-13T01:57:16.233Z,1031.35837765
2018-09-13T01:57:28.628Z,1031.35837765
2018-09-13T01:57:41.036Z,1031.35837765
2018-09-13T01:57:53.449Z,1031.35837765
2018-09-13T01:58:05.851Z,1031.32451377
2018-09-13T01:58:18.363Z,1031.32451377
2018-09-13T01:58:30.771Z,1031.32451377
2018-09-13T01:58:43.464Z,1031.32451377
2018-09-13T01:58:55.853Z,1031.32451377
2018-09-13T01:59:08.241Z,1031.32451377
2018-09-13T01:59:20.630Z,1031.32451377
2018-09-13T01:59:33.025Z,1031.32451377
2018-09-13T01:59:45.436Z,1031.32451377
2018-09-13T01:59:57.820Z,1031.32451377
2018-09-13T02:00:10.244Z,1031.35837765
2018-09-13T02:00:22.667Z,1031.35837765
2018-09-13T02:00:35.106Z,1031.35837765
2018-09-13T02:00:47.523Z,1031.35837765
2018-09-13T02:01:00.019Z,1031.35837765
2018-09-13T02:01:12.450Z,1031.35837765
2018-09-13T02:01:24.862Z,1031.35837765
2018-09-13T02:01:37.419Z,1031.35837765
2018-09-13T02:01:49.826Z,1031.35837765
2018-09-13T02:02:02.222Z,1031.35837765
2018-09-13T02:02:14.641Z,1031.32451377
2018-09-13T02:02:27.067Z,1031.32451377
2018-09-13T02:02:39.481Z,1031.32451377
2018-09-13T02:02:51.879Z,1031.32451377
2018-09-13T02:03:04.283Z,1031.39224153
2018-09-13T02:03:16.829Z,1031.39224153
2018-09-13T02:03:29.232Z,1031.39224153
2018-09-13T02:03:41.642Z,1031.39224153
2018-09-13T02:03:54.125Z,1031.39224153
2018-09-13T02:04:06.600Z,1031.32451377
2018-09-13T02:04:18.990Z,1031.32451377
2018-09-13T02:04:31.401Z,1031.32451377
2018-09-13T02:04:43.831Z,1031.32451377
2018-09-13T02:04:56.417Z,1031.32451377
2018-09-13T02:05:08.833Z,1031.42610541
2018-09-13T02:05:21.237Z,1031.42610541
2018-09-13T02:05:33.621Z,1031.42610541
2018-09-13T02:05:46.018Z,1031.42610541
2018-09-13T02:05:58.435Z,1031.42610541
2018-09-13T02:06:10.840Z,1031.29064989
2018-09-13T02:06:23.229Z,1031.29064989
2018-09-13T02:06:35.828Z,1031.29064989
2018-09-13T02:06:48.243Z,1031.29064989
2018-09-13T02:07:00.640Z,1031.29064989
2018-09-13T02:07:13.032Z,1031.35837765
2018-09-13T02:07:25.439Z,1031.35837765
2018-09-13T02:07:37.860Z,1031.35837765
2018-09-13T02:07:50.312Z,1031.35837765
2018-09-13T02:08:02.731Z,1031.32451377
2018-09-13T02:08:15.135Z,1031.32451377